createdAt,value
2019-04-05T00:00:44.464Z,6.08
2019-04-05T00:02:55.297Z,6.11
2019-04-05T00:05:06.271Z,6.11
2019-04-05T00:07:17.113Z,6.13
2019-04-05T00:09:27.985Z,6.08
2019-04-05T00:11:38.913Z,6.11
2019-04-05T00:13:49.867Z,6.13
2019-04-05T00:16:00.936Z,6.15
2019-04-05T00:18:11.960Z,6.16
2019-04-05T00:20:22.922Z,6.19
2019-04-05T00:22:33.762Z,6.18
2019-04-05T00:24:44.724Z,6.20
2019-04-05T00:26:55.566Z,6.23
2019-04-05T00:29:06.524Z,6.26
2019-04-05T00:31:17.490Z,6.29
2019-04-05T00:33:28.449Z,6.31
2019-04-05T00:35:39.333Z,6.26
2019-04-05T00:37:50.164Z,6.29
2019-04-05T00:40:01.157Z,6.33
2019-04-05T00:42:11.981Z,6.33
2019-04-05T00:44:22.861Z,6.39
2019-04-05T00:46:33.989Z,6.39
2019-04-05T00:48:44.839Z,6.37
2019-04-05T00:50:55.715Z,6.35
2019-04-05T00:53:06.642Z,6.34
2019-04-05T00:55:17.593Z,6.36
2019-04-05T00:57:28.433Z,6.38
2019-04-05T00:59:39.299Z,6.35
2019-04-05T01:01:50.334Z,6.35
2019-04-05T01:04:01.290Z,6.36
2019-04-05T01:06:12.263Z,6.36
2019-04-05T01:08:23.215Z,6.37
2019-04-05T01:10:34.169Z,6.38
2019-04-05T01:12:45.104Z,6.36
2019-04-05T01:14:56.286Z,6.30
2019-04-05T01:17:07.127Z,6.32
2019-04-05T01:19:18.270Z,6.27
2019-04-05T01:21:32.925Z,6.26
2019-04-05T01:23:43.776Z,6.25
2019-04-05T01:25:56.162Z,6.22
2019-04-05T01:28:07.215Z,6.23
2019-04-05T01:30:18.175Z,6.21
2019-04-05T01:32:29.028Z,6.22
2019-04-05T01:34:39.985Z,6.24
2019-04-05T01:36:50.934Z,6.19
2019-04-05T01:39:02.178Z,6.18
2019-04-05T01:41:13.129Z,6.20
2019-04-05T01:43:24.071Z,6.21
2019-04-05T01:45:35.013Z,6.17
2019-04-05T01:47:45.967Z,6.15
2019-04-05T01:49:56.805Z,6.14
2019-04-05T01:52:07.753Z,6.10
2019-04-05T01:54:18.700Z,6.09
2019-04-05T01:56:29.648Z,6.10
2019-04-05T01:58:40.509Z,6.10
2019-04-05T02:00:51.536Z,6.12
2019-04-05T02:03:02.619Z,6.11
2019-04-05T02:05:13.654Z,6.09
2019-04-05T02:07:24.603Z,6.11
2019-04-05T02:09:37.837Z,6.09
2019-04-05T02:11:48.847Z,6.06
2019-04-05T02:13:59.704Z,6.04
2019-04-05T02:16:10.656Z,6.06
2019-04-05T02:18:21.545Z,6.05
2019-04-05T02:20:32.488Z,6.10
2019-04-05T02:22:43.343Z,6.12
2019-04-05T02:24:54.276Z,6.09
2019-04-05T02:27:05.248Z,6.12
2019-04-05T02:29:16.077Z,6.09
2019-04-05T02:31:27.041Z,6.12
2019-04-05T02:33:38.025Z,6.12
2019-04-05T02:35:48.961Z,6.07
2019-04-05T02:37:59.934Z,6.08
2019-04-05T02:40:13.556Z,6.11
2019-04-05T02:42:24.986Z,6.10
2019-04-05T02:44:36.565Z,6.04
2019-04-05T02:46:48.197Z,6.06
2019-04-05T02:48:59.762Z,6.10
2019-04-05T02:51:12.669Z,6.11
2019-04-05T02:53:23.822Z,6.09
2019-04-05T02:55:36.069Z,6.09
2019-04-05T02:57:48.023Z,6.06
2019-04-05T02:59:59.484Z,6.08
2019-04-05T03:02:10.512Z,6.05
2019-04-05T03:04:21.817Z,6.03
2019-04-05T03:06:32.972Z,5.99
2019-04-05T03:08:44.131Z,6.01
2019-04-05T03:11:07.707Z,6.06
2019-04-05T03:13:20.046Z,6.03
2019-04-05T03:15:30.908Z,5.98
2019-04-05T03:17:41.859Z,6.04
2019-04-05T03:19:54.733Z,6.07
2019-04-05T03:22:08.190Z,6.11
2019-04-05T03:24:21.752Z,6.03
2019-04-05T03:26:35.790Z,5.99
2019-04-05T03:28:49.560Z,6.00
2019-04-05T03:31:00.583Z,5.97
2019-04-05T03:33:11.535Z,5.98
2019-04-05T03:35:22.493Z,5.98
2019-04-05T03:37:33.439Z,5.91
2019-04-05T03:39:44.386Z,5.89
2019-04-05T03:41:55.637Z,5.85
2019-04-05T03:44:07.151Z,5.85
2019-04-05T03:46:18.305Z,5.83
2019-04-05T03:48:29.249Z,5.84
2019-04-05T03:50:40.207Z,5.85
2019-04-05T03:52:53.008Z,5.87
2019-04-05T03:55:04.271Z,5.87
2019-04-05T03:57:15.410Z,5.88
2019-04-05T03:59:26.266Z,5.92
2019-04-05T04:01:37.405Z,5.94
2019-04-05T04:03:48.243Z,5.91
2019-04-05T04:05:59.104Z,5.87
2019-04-05T04:08:09.941Z,5.88
2019-04-05T04:10:20.916Z,5.86
2019-04-05T04:12:31.849Z,5.86
2019-04-05T04:14:42.878Z,5.86
2019-04-05T04:16:53.843Z,5.90
2019-04-05T04:19:04.833Z,5.93
2019-04-05T04:21:28.721Z,5.93
2019-04-05T04:23:39.662Z,5.93
2019-04-05T04:25:50.521Z,5.88
2019-04-05T04:28:01.464Z,5.85
2019-04-05T04:30:12.510Z,5.83
2019-04-05T04:32:23.539Z,5.90
2019-04-05T04:34:34.495Z,5.86
2019-04-05T04:36:45.443Z,5.85
2019-04-05T04:38:56.457Z,5.92
2019-04-05T04:41:07.415Z,5.88
2019-04-05T04:43:18.941Z,5.90
2019-04-05T04:45:30.761Z,5.88
2019-04-05T04:47:41.632Z,5.83
2019-04-05T04:49:54.866Z,5.84
2019-04-05T04:52:06.137Z,5.84
2019-04-05T04:54:17.397Z,5.88
2019-04-05T04:56:28.233Z,5.92
2019-04-05T04:58:39.205Z,5.92
2019-04-05T05:00:50.354Z,5.84
2019-04-05T05:03:01.328Z,5.86
2019-04-05T05:05:12.836Z,5.88
2019-04-05T05:07:23.984Z,5.83
2019-04-05T05:09:34.941Z,5.80
2019-04-05T05:11:46.007Z,5.82
2019-04-05T05:13:56.977Z,5.85
2019-04-05T05:16:07.931Z,5.88
2019-04-05T05:18:19.034Z,5.85
2019-04-05T05:20:29.977Z,5.82
2019-04-05T05:22:41.366Z,5.91
2019-04-05T05:24:52.324Z,5.91
2019-04-05T05:27:03.502Z,5.92
2019-04-05T05:29:16.290Z,5.95
2019-04-05T05:31:27.125Z,5.97
2019-04-05T05:33:38.099Z,5.98
2019-04-05T05:35:49.344Z,6.02
2019-04-05T05:38:00.301Z,6.07
2019-04-05T05:40:11.586Z,6.08
2019-04-05T05:42:22.496Z,6.07
2019-04-05T05:44:33.904Z,6.14
2019-04-05T05:46:44.951Z,6.07
2019-04-05T05:48:56.039Z,6.07
2019-04-05T05:51:07.746Z,6.04
2019-04-05T05:53:18.846Z,6.01
2019-04-05T05:55:30.260Z,6.03
2019-04-05T05:57:41.230Z,6.04
2019-04-05T05:59:52.105Z,6.04
2019-04-05T06:02:03.151Z,6.05
2019-04-05T06:04:13.998Z,5.98
2019-04-05T06:06:24.949Z,6.02
2019-04-05T06:08:35.850Z,5.98
2019-04-05T06:10:46.724Z,6.07
2019-04-05T06:12:58.798Z,6.10
2019-04-05T06:15:10.155Z,6.10
2019-04-05T06:17:21.037Z,6.10
2019-04-05T06:19:32.015Z,6.05
2019-04-05T06:21:42.860Z,6.13
2019-04-05T06:23:53.732Z,6.18
2019-04-05T06:26:04.573Z,6.27
2019-04-05T06:28:15.537Z,6.31
2019-04-05T06:30:28.770Z,6.35
2019-04-05T06:32:39.131Z,6.41
2019-04-05T06:34:50.129Z,6.44
2019-04-05T06:37:00.991Z,6.38
2019-04-05T06:39:11.920Z,6.44
2019-04-05T06:41:22.784Z,6.47
2019-04-05T06:43:33.724Z,6.43
2019-04-05T06:45:44.642Z,6.56
2019-04-05T06:47:55.436Z,6.61
2019-04-05T06:50:06.990Z,6.66
2019-04-05T06:52:17.826Z,6.69
2019-04-05T06:54:28.819Z,6.68
2019-04-05T06:56:39.889Z,6.69
2019-04-05T06:58:50.731Z,6.71
2019-04-05T07:01:01.602Z,6.77
2019-04-05T07:03:13.704Z,6.72
2019-04-05T07:05:24.799Z,6.70
2019-04-05T07:07:35.769Z,6.68
2019-04-05T07:09:46.591Z,6.98
2019-04-05T07:11:57.458Z,7.34
2019-04-05T07:14:08.498Z,7.35
2019-04-05T07:16:19.463Z,7.31
2019-04-05T07:18:35.644Z,7.26
2019-04-05T07:20:43.195Z,7.25
2019-04-05T07:22:54.054Z,7.24
2019-04-05T07:25:05.186Z,7.14
2019-04-05T07:27:16.038Z,7.18
2019-04-05T07:29:26.878Z,7.18
2019-04-05T07:31:37.867Z,7.18
2019-04-05T07:33:48.824Z,7.25
2019-04-05T07:35:59.678Z,7.30
2019-04-05T07:38:10.534Z,7.20
2019-04-05T07:40:21.605Z,7.19
2019-04-05T07:42:32.492Z,7.17
2019-04-05T07:44:43.336Z,7.17
2019-04-05T07:46:54.197Z,7.16
2019-04-05T07:49:05.138Z,7.14
2019-04-05T07:51:15.970Z,7.13
2019-04-05T07:53:26.975Z,7.12
2019-04-05T07:55:37.811Z,7.10
2019-04-05T07:57:48.662Z,7.15
2019-04-05T07:59:59.501Z,7.12
2019-04-05T08:02:10.457Z,7.10
2019-04-05T08:04:21.314Z,7.08
2019-04-05T08:06:33.576Z,7.10
2019-04-05T08:08:58.333Z,7.09
2019-04-05T08:11:09.609Z,7.07
2019-04-05T08:13:21.737Z,7.06
2019-04-05T08:15:32.586Z,7.09
2019-04-05T08:17:43.501Z,7.04
2019-04-05T08:19:54.292Z,7.08
2019-04-05T08:22:05.284Z,7.10
2019-04-05T08:24:16.266Z,7.08
2019-04-05T08:26:27.108Z,7.09
2019-04-05T08:28:37.980Z,7.08
2019-04-05T08:30:48.922Z,7.05
2019-04-05T08:32:59.772Z,7.11
2019-04-05T08:35:10.827Z,7.14
2019-04-05T08:37:21.665Z,7.17
2019-04-05T08:39:32.528Z,7.18
2019-04-05T08:41:43.454Z,7.19
2019-04-05T08:43:54.312Z,7.18
2019-04-05T08:46:05.365Z,7.20
2019-04-05T08:48:16.317Z,7.20
2019-04-05T08:50:27.165Z,7.23
2019-04-05T08:52:38.106Z,7.16
2019-04-05T08:54:48.970Z,7.13
2019-04-05T08:56:59.826Z,7.18
2019-04-05T08:59:10.809Z,7.22
2019-04-05T09:01:21.682Z,7.26
2019-04-05T09:03:32.591Z,7.28
2019-04-05T09:05:43.476Z,7.29
2019-04-05T09:07:54.420Z,7.28
2019-04-05T09:10:05.381Z,7.24
2019-04-05T09:12:16.328Z,7.28
2019-04-05T09:14:27.302Z,7.32
2019-04-05T09:16:38.165Z,7.34
2019-04-05T09:18:49.537Z,7.43
2019-04-05T09:21:00.691Z,7.46
2019-04-05T09:23:11.535Z,7.43
2019-04-05T09:25:22.607Z,7.41
2019-04-05T09:27:33.551Z,7.44
2019-04-05T09:29:44.522Z,7.52
2019-04-05T09:31:55.378Z,7.57
2019-04-05T09:34:06.321Z,7.57
2019-04-05T09:36:17.395Z,7.67
2019-04-05T09:38:28.330Z,7.77
2019-04-05T09:40:39.282Z,7.87
2019-04-05T09:42:50.330Z,8.03
2019-04-05T09:45:01.264Z,8.12
2019-04-05T09:47:12.336Z,8.16
2019-04-05T09:49:35.796Z,8.63
2019-04-05T09:51:36.378Z,9.27
2019-04-05T09:53:49.155Z,9.34
2019-04-05T09:56:00.040Z,9.23
2019-04-05T09:58:10.880Z,9.25
2019-04-05T10:00:23.532Z,9.11
2019-04-05T10:02:34.392Z,9.12
2019-04-05T10:04:45.294Z,9.25
2019-04-05T10:06:56.133Z,9.37
2019-04-05T10:09:07.396Z,9.30
2019-04-05T10:11:18.252Z,9.28
2019-04-05T10:13:29.143Z,9.28
2019-04-05T10:15:39.981Z,9.18
2019-04-05T10:17:50.872Z,9.10
2019-04-05T10:20:01.830Z,9.07
2019-04-05T10:22:12.786Z,8.97
2019-04-05T10:24:23.686Z,8.98
2019-04-05T10:26:34.548Z,8.99
2019-04-05T10:28:45.457Z,8.86
2019-04-05T10:30:56.310Z,8.80
2019-04-05T10:33:07.274Z,8.77
2019-04-05T10:35:18.153Z,8.78
2019-04-05T10:37:29.010Z,8.64
2019-04-05T10:39:40.067Z,8.69
2019-04-05T10:42:03.691Z,8.79
2019-04-05T10:44:14.707Z,8.88
2019-04-05T10:46:25.581Z,8.88
2019-04-05T10:48:36.563Z,8.89
2019-04-05T10:50:47.738Z,8.97
2019-04-05T10:52:58.697Z,8.92
2019-04-05T10:55:09.764Z,8.89
2019-04-05T10:57:20.621Z,8.98
2019-04-05T10:59:31.582Z,8.95
2019-04-05T11:01:42.436Z,9.08
2019-04-05T11:03:53.397Z,9.11
2019-04-05T11:06:04.367Z,9.24
2019-04-05T11:08:15.226Z,9.24
2019-04-05T11:10:26.199Z,9.24
2019-04-05T11:12:37.156Z,9.15
2019-04-05T11:14:48.042Z,9.21
2019-04-05T11:16:59.020Z,9.26
2019-04-05T11:19:09.985Z,9.26
2019-04-05T11:21:20.842Z,9.21
2019-04-05T11:23:31.798Z,9.20
2019-04-05T11:25:43.517Z,9.18
2019-04-05T11:27:54.377Z,9.17
2019-04-05T11:30:08.664Z,9.21
2019-04-05T11:32:19.661Z,9.20
2019-04-05T11:34:30.620Z,9.16
2019-04-05T11:36:42.088Z,9.23
2019-04-05T11:38:53.062Z,9.21
2019-04-05T11:41:04.614Z,9.21
2019-04-05T11:43:16.328Z,9.21
2019-04-05T11:45:27.491Z,9.15
2019-04-05T11:47:39.688Z,9.15
2019-04-05T11:49:50.925Z,9.04
2019-04-05T11:52:01.991Z,8.99
2019-04-05T11:54:13.867Z,8.98
2019-04-05T11:56:25.307Z,9.01
2019-04-05T11:58:36.169Z,9.01
2019-04-05T12:00:49.125Z,9.06
2019-04-05T12:03:04.591Z,9.04
2019-04-05T12:05:16.950Z,8.94
2019-04-05T12:07:27.809Z,8.91
2019-04-05T12:09:38.783Z,8.87
2019-04-05T12:11:49.620Z,8.84
2019-04-05T12:14:00.458Z,8.82
2019-04-05T12:16:11.336Z,8.79
2019-04-05T12:18:22.309Z,8.77
2019-04-05T12:20:35.041Z,8.77
2019-04-05T12:22:46.223Z,8.81
2019-04-05T12:24:57.062Z,8.77
2019-04-05T12:27:08.033Z,8.79
2019-04-05T12:29:18.900Z,8.78
2019-04-05T12:31:29.872Z,8.85
2019-04-05T12:33:40.834Z,8.96
2019-04-05T12:35:56.458Z,9.07
2019-04-05T12:38:07.125Z,9.18
2019-04-05T12:40:18.396Z,9.23
2019-04-05T12:42:31.250Z,9.32
2019-04-05T12:44:44.855Z,9.27
2019-04-05T12:46:54.890Z,9.27
2019-04-05T12:49:05.831Z,9.30
2019-04-05T12:51:16.834Z,9.28
2019-04-05T12:53:27.645Z,9.23
2019-04-05T12:55:38.526Z,9.24
2019-04-05T12:57:49.539Z,9.16
2019-04-05T13:00:00.370Z,9.15
2019-04-05T13:02:11.291Z,9.15
2019-04-05T13:04:22.145Z,9.18
2019-04-05T13:06:33.131Z,9.22
2019-04-05T13:08:43.979Z,9.18
2019-04-05T13:10:55.949Z,9.26
2019-04-05T13:13:07.757Z,9.30
2019-04-05T13:15:18.611Z,9.30
2019-04-05T13:17:31.309Z,9.36
2019-04-05T13:19:42.374Z,9.32
2019-04-05T13:21:53.241Z,9.35
2019-04-05T13:24:06.864Z,9.45
2019-04-05T13:26:16.977Z,9.49
2019-04-05T13:28:28.060Z,9.52
2019-04-05T13:30:38.911Z,9.56
2019-04-05T13:32:52.773Z,9.56
2019-04-05T13:35:04.156Z,9.56
2019-04-05T13:37:20.511Z,9.55
2019-04-05T13:39:29.719Z,9.50
2019-04-05T13:41:40.847Z,9.52
2019-04-05T13:43:51.808Z,9.49
2019-04-05T13:46:03.184Z,9.42
2019-04-05T13:48:14.159Z,9.40
2019-04-05T13:50:25.020Z,9.42
2019-04-05T13:52:35.956Z,9.40
2019-04-05T13:54:46.875Z,9.40
2019-04-05T13:56:57.730Z,9.35
2019-04-05T13:59:08.717Z,9.33
2019-04-05T14:01:20.659Z,9.37
2019-04-05T14:03:32.370Z,9.34
2019-04-05T14:05:45.122Z,9.37
2019-04-05T14:08:09.793Z,9.40
2019-04-05T14:10:12.270Z,9.44
2019-04-05T14:12:22.743Z,9.50
2019-04-05T14:14:33.603Z,9.49
2019-04-05T14:16:44.482Z,9.48
2019-04-05T14:18:57.317Z,9.51
2019-04-05T14:21:08.197Z,9.48
2019-04-05T14:23:23.314Z,9.44
2019-04-05T14:25:32.125Z,9.44
2019-04-05T14:27:43.092Z,9.33
2019-04-05T14:29:53.957Z,9.29
2019-04-05T14:32:19.738Z,9.38
2019-04-05T14:34:23.440Z,9.36
2019-04-05T14:36:32.691Z,9.35
2019-04-05T14:38:43.644Z,9.32
2019-04-05T14:40:54.512Z,9.32
2019-04-05T14:43:05.562Z,9.40
2019-04-05T14:45:16.628Z,9.39
2019-04-05T14:47:28.334Z,9.39
2019-04-05T14:49:40.087Z,9.34
2019-04-05T14:51:53.893Z,9.27
2019-04-05T14:54:04.060Z,9.27
2019-04-05T14:56:16.854Z,9.31
2019-04-05T14:58:27.807Z,9.32
2019-04-05T15:00:38.837Z,9.33
2019-04-05T15:02:49.710Z,9.35
2019-04-05T15:05:02.607Z,9.34
2019-04-05T15:07:13.552Z,9.33
2019-04-05T15:09:25.559Z,9.34
2019-04-05T15:11:36.630Z,9.33
2019-04-05T15:13:47.577Z,9.28
2019-04-05T15:15:58.443Z,9.25
2019-04-05T15:18:09.318Z,9.28
2019-04-05T15:20:20.272Z,9.37
2019-04-05T15:22:31.134Z,9.39
2019-04-05T15:24:41.965Z,9.41
2019-04-05T15:26:53.010Z,9.48
2019-04-05T15:29:03.834Z,9.50
2019-04-05T15:31:14.824Z,9.46
2019-04-05T15:33:27.845Z,9.44
2019-04-05T15:35:38.596Z,9.42
2019-04-05T15:37:49.555Z,9.41
2019-04-05T15:40:00.848Z,9.43
2019-04-05T15:42:11.942Z,9.41
2019-04-05T15:44:22.803Z,9.42
2019-04-05T15:46:33.876Z,9.43
2019-04-05T15:48:44.948Z,9.43
2019-04-05T15:50:59.081Z,9.40
2019-04-05T15:53:08.999Z,9.41
2019-04-05T15:55:19.849Z,9.39
2019-04-05T15:57:33.493Z,9.37
2019-04-05T15:59:45.155Z,9.37
2019-04-05T16:04:26.817Z,9.43
2019-04-05T16:06:39.052Z,9.47
2019-04-05T16:08:50.288Z,9.53
2019-04-05T16:11:01.245Z,9.56
2019-04-05T16:13:12.230Z,9.64
2019-04-05T16:15:23.091Z,9.59
2019-04-05T16:17:33.972Z,9.57
2019-04-05T16:19:45.062Z,9.58
2019-04-05T16:21:56.053Z,9.56
2019-04-05T16:24:07.133Z,9.53
2019-04-05T16:26:18.100Z,9.50
2019-04-05T16:28:29.081Z,9.50
2019-04-05T16:30:40.118Z,9.48
2019-04-05T16:32:51.192Z,9.49
2019-04-05T16:35:04.087Z,9.52
2019-04-05T16:37:17.411Z,9.48
2019-04-05T16:39:28.461Z,9.49
2019-04-05T16:41:39.367Z,9.45
2019-04-05T16:43:56.400Z,9.45
2019-04-05T16:46:07.252Z,9.47
2019-04-05T16:48:18.111Z,9.47
2019-04-05T16:50:29.132Z,9.46
2019-04-05T16:52:44.977Z,9.45
2019-04-05T16:54:52.868Z,9.47
2019-04-05T16:57:03.724Z,9.41
2019-04-05T16:59:14.715Z,9.40
2019-04-05T17:01:27.193Z,9.40
2019-04-05T17:03:38.583Z,9.40
2019-04-05T17:05:49.531Z,9.39
2019-04-05T17:08:00.470Z,9.38
2019-04-05T17:10:11.797Z,9.33
2019-04-05T17:12:22.669Z,9.31
2019-04-05T17:14:33.638Z,9.30
2019-04-05T17:16:44.499Z,9.28
2019-04-05T17:18:55.386Z,9.30
2019-04-05T17:21:06.275Z,9.35
2019-04-05T17:23:17.239Z,9.29
2019-04-05T17:25:28.271Z,9.27
2019-04-05T17:27:39.244Z,9.27
2019-04-05T17:29:51.014Z,9.25
2019-04-05T17:32:03.237Z,9.26
2019-04-05T17:34:14.106Z,9.24
2019-04-05T17:36:25.126Z,9.24
2019-04-05T17:38:35.979Z,9.24
2019-04-05T17:40:46.868Z,9.21
2019-04-05T17:42:57.721Z,9.21
2019-04-05T17:45:09.002Z,9.21
2019-04-05T17:47:19.970Z,9.22
2019-04-05T17:49:30.853Z,9.24
2019-04-05T17:51:41.836Z,9.32
2019-04-05T17:53:52.791Z,9.34
2019-04-05T17:56:03.870Z,9.36
2019-04-05T17:58:16.550Z,9.36
2019-04-05T18:00:27.424Z,9.36
2019-04-05T18:02:38.299Z,9.35
2019-04-05T18:04:51.102Z,9.31
2019-04-05T18:07:03.993Z,9.30
2019-04-05T18:09:14.835Z,9.34
2019-04-05T18:11:25.864Z,9.34
2019-04-05T18:13:36.803Z,9.33
2019-04-05T18:15:52.770Z,9.28
2019-04-05T18:18:00.585Z,9.26
2019-04-05T18:20:11.534Z,9.24
2019-04-05T18:22:22.400Z,9.21
2019-04-05T18:24:33.346Z,9.21
2019-04-05T18:26:44.257Z,9.20
2019-04-05T18:28:55.101Z,9.15
2019-04-05T18:31:06.050Z,9.14
2019-04-05T18:33:16.964Z,9.12
2019-04-05T18:35:27.880Z,9.09
2019-04-05T18:37:38.797Z,9.12
2019-04-05T18:39:49.796Z,9.13
2019-04-05T18:42:00.744Z,9.11
2019-04-05T18:44:11.606Z,9.07
2019-04-05T18:46:22.449Z,9.08
2019-04-05T18:48:33.431Z,9.08
2019-04-05T18:50:44.307Z,9.05
2019-04-05T18:52:55.198Z,9.03
2019-04-05T18:55:06.191Z,9.06
2019-04-05T18:57:17.141Z,9.03
2019-04-05T18:59:28.019Z,9.06
2019-04-05T19:01:38.865Z,9.09
2019-04-05T19:03:49.761Z,9.08
2019-04-05T19:06:00.681Z,9.07
2019-04-05T19:08:11.741Z,9.08
2019-04-05T19:10:22.708Z,9.08
2019-04-05T19:12:34.461Z,9.13
2019-04-05T19:14:45.305Z,9.11
2019-04-05T19:16:59.123Z,9.10
2019-04-05T19:19:09.103Z,9.10
2019-04-05T19:21:20.158Z,9.09
2019-04-05T19:23:31.149Z,9.03
2019-04-05T19:25:42.048Z,9.02
2019-04-05T19:27:52.908Z,9.02
2019-04-05T19:50:01.825Z,8.85
2019-04-05T19:52:12.681Z,8.82
2019-04-05T19:54:23.530Z,8.79
2019-04-05T19:56:34.505Z,8.75
2019-04-05T19:58:45.366Z,8.74
2019-04-05T20:00:56.332Z,8.72
2019-04-05T20:03:07.392Z,8.72
2019-04-05T20:05:18.502Z,8.73
2019-04-05T20:07:29.445Z,8.71
2019-04-05T20:09:40.530Z,8.70
2019-04-05T20:11:51.421Z,8.72
2019-04-05T20:14:02.511Z,8.70
2019-04-05T20:16:13.413Z,8.74
2019-04-05T20:18:24.477Z,8.76
2019-04-05T20:20:35.346Z,8.77
2019-04-05T20:22:46.250Z,8.76
2019-04-05T20:24:57.265Z,8.76
2019-04-05T20:27:08.153Z,8.74
2019-04-05T20:29:19.005Z,8.75
2019-04-05T20:31:29.969Z,8.78
2019-04-05T20:33:40.921Z,8.74
2019-04-05T20:35:51.881Z,8.69
2019-04-05T20:38:02.860Z,8.66
2019-04-05T20:40:13.833Z,8.67
2019-04-05T20:42:24.822Z,8.67
2019-04-05T20:44:35.682Z,8.66
2019-04-05T20:46:46.554Z,8.96
2019-04-05T20:48:57.526Z,9.02
2019-04-05T20:51:08.472Z,8.94
2019-04-05T20:53:19.457Z,8.87
2019-04-05T20:55:32.188Z,8.74
2019-04-05T20:57:43.078Z,8.63
2019-04-05T20:59:54.030Z,8.55
2019-04-05T21:02:05.099Z,8.45
2019-04-05T21:04:16.000Z,8.41
2019-04-05T21:06:26.961Z,8.31
2019-04-05T21:08:37.822Z,8.18
2019-04-05T21:10:48.876Z,8.13
2019-04-05T21:12:59.757Z,8.06
2019-04-05T21:15:10.726Z,8.01
2019-04-05T21:17:21.584Z,7.94
2019-04-05T21:19:32.462Z,7.83
2019-04-05T21:21:43.357Z,7.79
2019-04-05T21:23:54.256Z,7.69
2019-04-05T21:26:05.223Z,7.62
2019-04-05T21:28:16.109Z,7.60
2019-04-05T21:30:26.951Z,7.57
2019-04-05T21:32:37.809Z,7.54
2019-04-05T21:34:48.809Z,7.50
2019-04-05T21:36:59.665Z,7.42
2019-04-05T21:39:10.551Z,7.35
2019-04-05T21:41:21.518Z,7.31
2019-04-05T21:43:32.411Z,7.27
2019-04-05T21:45:43.381Z,7.18
2019-04-05T21:47:54.226Z,7.12
2019-04-05T21:50:06.732Z,7.05
2019-04-05T21:52:17.580Z,7.01
2019-04-05T21:54:28.438Z,6.95
2019-04-05T21:56:39.274Z,6.89
2019-04-05T21:58:50.124Z,6.87
2019-04-05T22:01:05.915Z,6.82
2019-04-05T22:03:16.866Z,6.81
2019-04-05T22:05:27.740Z,6.74
2019-04-05T22:07:38.581Z,6.64
2019-04-05T22:09:49.577Z,6.51
2019-04-05T22:12:00.504Z,6.45
2019-04-05T22:14:11.376Z,6.39
2019-04-05T22:16:22.342Z,6.32
2019-04-05T22:18:33.181Z,6.22
2019-04-05T22:20:44.159Z,6.07
2019-04-05T22:22:55.020Z,5.94
2019-04-05T22:25:06.244Z,5.90
2019-04-05T22:27:17.151Z,5.86
2019-04-05T22:29:28.084Z,5.89
2019-04-05T22:31:38.983Z,5.92
2019-04-05T22:33:49.875Z,5.98
2019-04-05T22:36:00.748Z,5.93
2019-04-05T22:38:11.652Z,5.90
2019-04-05T22:40:22.524Z,5.87
2019-04-05T22:42:33.371Z,5.77
2019-04-05T22:44:44.218Z,5.75
2019-04-05T22:46:56.996Z,5.67
2019-04-05T22:49:07.924Z,5.61
2019-04-05T22:51:18.799Z,5.63
2019-04-05T22:53:29.649Z,5.62
2019-04-05T22:55:40.573Z,5.59
2019-04-05T22:57:51.463Z,5.56
2019-04-05T23:00:05.118Z,5.47
2019-04-05T23:02:16.127Z,5.43
2019-04-05T23:04:27.162Z,5.37
2019-04-05T23:06:38.009Z,5.28
2019-04-05T23:08:48.861Z,5.23
2019-04-05T23:10:59.732Z,5.19
2019-04-05T23:13:10.672Z,5.19
2019-04-05T23:15:21.652Z,5.20
2019-04-05T23:17:32.615Z,5.19
2019-04-05T23:19:43.479Z,5.16
2019-04-05T23:21:54.461Z,5.14
2019-04-05T23:24:05.316Z,5.16
2019-04-05T23:26:16.179Z,5.16
2019-04-05T23:28:27.079Z,5.10
2019-04-05T23:30:37.922Z,5.03
2019-04-05T23:32:48.839Z,5.04
2019-04-05T23:35:01.585Z,5.04
2019-04-05T23:37:12.507Z,5.03
2019-04-05T23:39:23.330Z,5.01
2019-04-05T23:41:34.195Z,4.95
2019-04-05T23:43:45.032Z,4.90
2019-04-05T23:45:55.893Z,4.84
2019-04-05T23:48:06.749Z,4.79
2019-04-05T23:50:17.605Z,4.75
2019-04-05T23:52:28.461Z,4.73
2019-04-05T23:54:39.453Z,4.73
2019-04-05T23:56:50.401Z,4.67
2019-04-05T23:59:01.356Z,4.54
